createdAt,value
2022-11-15T00:02:21.074Z,14.40
2022-11-15T00:07:53.386Z,13.55
2022-11-15T00:12:47.594Z,10.95
2022-11-15T00:17:50.652Z,13.63
2022-11-15T00:22:55.564Z,13.70
2022-11-15T00:27:58.934Z,14.02
2022-11-15T00:33:03.879Z,13.73
2022-11-15T00:38:07.764Z,14.18
2022-11-15T00:43:10.582Z,12.70
2022-11-15T00:48:13.101Z,13.75
2022-11-15T00:53:17.860Z,13.80
2022-11-15T00:58:20.768Z,11.23
2022-11-15T01:03:23.446Z,11.77
2022-11-15T01:08:27.407Z,12.02
2022-11-15T01:13:33.074Z,11.60
2022-11-15T01:18:35.881Z,11.68
2022-11-15T01:23:40.261Z,11.65
2022-11-15T01:28:43.969Z,8.95
2022-11-15T01:33:47.419Z,9.23
2022-11-15T01:38:56.176Z,10.85
2022-11-15T01:44:19.939Z,10.63
2022-11-15T01:49:25.642Z,10.85
2022-11-15T01:54:29.948Z,10.95
2022-11-15T01:59:33.034Z,8.23
2022-11-15T02:04:40.025Z,10.32
2022-11-15T02:09:45.279Z,10.63
2022-11-15T02:14:52.120Z,9.65
2022-11-15T02:20:38.438Z,11.45
2022-11-15T02:25:55.929Z,11.38
2022-11-15T02:31:06.924Z,10.93
2022-11-15T02:36:16.897Z,11.38
2022-11-15T02:41:26.188Z,10.60
2022-11-15T02:46:53.958Z,11.27
2022-11-15T02:51:57.816Z,10.18
2022-11-15T02:57:03.427Z,11.43
2022-11-15T03:02:20.192Z,10.73
2022-11-15T03:07:31.501Z,10.82
2022-11-15T03:12:42.827Z,10.55
2022-11-15T03:17:52.863Z,10.48
2022-11-15T03:22:57.986Z,11.27
2022-11-15T03:28:05.911Z,9.82
2022-11-15T03:33:11.754Z,10.43
2022-11-15T03:38:21.713Z,10.07
2022-11-15T03:43:32.851Z,10.40
2022-11-15T03:48:42.531Z,10.00
2022-11-15T03:53:45.125Z,10.20
2022-11-15T03:58:47.664Z,9.90
2022-11-15T04:03:51.658Z,10.40
2022-11-15T04:08:54.173Z,7.50
2022-11-15T04:13:56.693Z,9.15
2022-11-15T04:19:18.341Z,10.35
2022-11-15T04:24:20.959Z,10.15
2022-11-15T04:29:38.528Z,10.40
2022-11-15T04:34:42.408Z,9.95
2022-11-15T04:39:45.436Z,7.68
2022-11-15T04:44:48.109Z,9.52
2022-11-15T04:49:52.000Z,9.30
2022-11-15T04:54:54.676Z,8.65
2022-11-15T04:59:57.245Z,8.50
2022-11-15T05:05:01.132Z,8.30
2022-11-15T05:10:03.761Z,6.72
2022-11-15T05:15:07.331Z,8.95
2022-11-15T05:20:12.418Z,9.03
2022-11-15T05:25:14.959Z,8.27
2022-11-15T05:30:18.276Z,8.88
2022-11-15T05:35:31.871Z,7.70
2022-11-15T05:40:36.433Z,8.52
2022-11-15T05:50:46.271Z,8.30
2022-11-15T05:55:49.569Z,8.85
2022-11-15T06:00:52.209Z,9.18
2022-11-15T06:05:56.296Z,7.88
2022-11-15T06:10:58.824Z,8.10
2022-11-15T06:16:01.890Z,7.95
2022-11-15T06:21:06.917Z,8.90
2022-11-15T06:26:09.456Z,7.90
2022-11-15T06:31:13.259Z,8.05
2022-11-15T06:36:18.262Z,7.93
2022-11-15T06:41:21.978Z,8.10
2022-11-15T06:46:24.721Z,9.13
2022-11-15T06:51:28.727Z,9.98
2022-11-15T06:56:31.373Z,7.18
2022-11-15T07:01:33.942Z,9.00
2022-11-15T07:06:37.901Z,9.18
2022-11-15T07:11:40.790Z,8.18
2022-11-15T07:16:43.360Z,8.18
2022-11-15T07:21:47.622Z,8.70
2022-11-15T07:26:50.283Z,7.65
2022-11-15T07:31:53.052Z,9.20
2022-11-15T07:37:06.070Z,8.38
2022-11-15T07:42:26.361Z,8.65
2022-11-15T07:47:30.437Z,11.15
2022-11-15T07:52:34.433Z,8.93
2022-11-15T07:57:37.359Z,8.50
2022-11-15T08:02:40.222Z,11.70
2022-11-15T08:07:44.310Z,10.13
2022-11-15T08:12:46.873Z,8.13
2022-11-15T08:17:51.048Z,9.23
2022-11-15T08:22:57.650Z,7.57
2022-11-15T08:28:01.886Z,9.32
2022-11-15T08:33:05.068Z,7.65
2022-11-15T08:38:09.030Z,10.35
2022-11-15T08:43:11.584Z,11.35
2022-11-15T08:48:14.138Z,10.57
2022-11-15T08:53:18.076Z,9.90
2022-11-15T08:58:20.694Z,10.23
2022-11-15T09:03:23.301Z,10.07
2022-11-15T09:08:48.192Z,11.63
2022-11-15T09:13:52.615Z,10.77
2022-11-15T09:18:55.697Z,11.10
2022-11-15T09:23:59.928Z,9.55
2022-11-15T09:29:03.219Z,10.70
2022-11-15T09:34:05.778Z,11.10
2022-11-15T09:39:10.375Z,10.40
2022-11-15T09:44:30.854Z,8.40
2022-11-15T09:49:34.661Z,5.30
2022-11-15T09:54:56.431Z,3.83
2022-11-15T10:05:43.263Z,5.20
2022-11-15T10:11:00.600Z,2.80
2022-11-15T10:16:24.934Z,2.88
2022-11-15T10:21:39.840Z,3.33
2022-11-15T10:26:49.690Z,3.10
2022-11-15T10:31:52.395Z,3.17
2022-11-15T10:36:59.021Z,3.13
2022-11-15T10:42:18.382Z,3.33
2022-11-15T10:47:32.422Z,3.47
2022-11-15T10:52:38.688Z,3.45
2022-11-15T10:57:52.247Z,3.97
2022-11-15T11:03:00.588Z,3.57
2022-11-15T11:08:05.995Z,3.60
2022-11-15T11:13:17.259Z,3.25
2022-11-15T11:18:25.889Z,3.50
2022-11-15T11:23:44.109Z,2.92
2022-11-15T11:28:53.845Z,2.33
2022-11-15T11:34:06.369Z,2.30
2022-11-15T11:39:21.143Z,2.28
2022-11-15T11:44:34.666Z,2.45
2022-11-15T11:49:44.227Z,2.10
2022-11-15T11:54:57.055Z,2.40
2022-11-15T12:00:06.197Z,2.20
2022-11-15T12:05:15.506Z,2.40
2022-11-15T12:10:24.260Z,2.28
2022-11-15T12:15:32.262Z,2.25
2022-11-15T12:20:38.598Z,2.25
2022-11-15T12:25:47.753Z,2.20
2022-11-15T12:30:56.761Z,2.13
2022-11-15T12:36:01.337Z,2.30
2022-11-15T12:41:20.031Z,2.20
2022-11-15T12:46:46.734Z,2.30
2022-11-15T12:52:08.648Z,2.28
2022-11-15T12:57:41.471Z,2.33
2022-11-15T13:02:46.251Z,2.47
2022-11-15T13:08:00.220Z,2.53
2022-11-15T13:13:04.459Z,2.33
2022-11-15T13:18:35.888Z,2.25
2022-11-15T13:23:38.727Z,2.53
2022-11-15T13:28:46.643Z,2.40
2022-11-15T13:33:50.885Z,2.58
2022-11-15T13:38:59.709Z,2.33
2022-11-15T13:44:03.998Z,2.88
2022-11-15T13:49:12.878Z,2.60
2022-11-15T13:54:29.510Z,2.80
2022-11-15T13:59:35.350Z,2.50
2022-11-15T14:04:41.474Z,2.72
2022-11-15T14:09:46.220Z,3.03
2022-11-15T14:14:49.276Z,3.60
2022-11-15T14:19:53.465Z,3.70
2022-11-15T14:30:23.667Z,2.95
2022-11-15T14:35:27.614Z,3.83
2022-11-15T14:40:30.576Z,3.50
2022-11-15T14:45:33.491Z,3.42
2022-11-15T14:50:38.192Z,3.65
2022-11-15T14:55:40.914Z,3.72
2022-11-15T15:00:43.949Z,4.20
2022-11-15T15:05:48.955Z,4.00
2022-11-15T15:10:51.482Z,3.83
2022-11-15T15:15:54.656Z,3.58
2022-11-15T15:21:04.009Z,4.80
2022-11-15T15:26:06.583Z,4.45
2022-11-15T15:31:10.434Z,4.45
2022-11-15T15:36:15.764Z,5.90
2022-11-15T15:41:19.066Z,8.70
2022-11-15T15:46:22.246Z,7.55
2022-11-15T15:51:26.322Z,7.40
2022-11-15T15:56:29.153Z,6.35
2022-11-15T16:01:31.887Z,5.63
2022-11-15T16:06:43.230Z,6.47
2022-11-15T16:11:48.030Z,10.02
2022-11-15T16:16:50.663Z,8.40
2022-11-15T16:21:54.585Z,12.48
2022-11-15T16:26:57.185Z,7.20
2022-11-15T16:31:59.800Z,8.85
2022-11-15T16:37:04.037Z,9.63
2022-11-15T16:42:06.758Z,10.13
2022-11-15T16:47:18.513Z,10.88
2022-11-15T16:52:22.421Z,11.45
2022-11-15T16:57:26.113Z,10.70
2022-11-15T17:02:28.813Z,8.67
2022-11-15T17:07:32.793Z,8.55
2022-11-15T17:12:36.481Z,5.82
2022-11-15T17:17:39.035Z,7.37
2022-11-15T17:22:43.042Z,8.23
2022-11-15T17:27:45.672Z,8.10
2022-11-15T17:32:49.725Z,9.23
2022-11-15T17:37:53.645Z,10.07
2022-11-15T17:42:57.395Z,10.95
2022-11-15T17:48:00.321Z,10.70
2022-11-15T17:53:04.250Z,14.07
2022-11-15T17:58:06.840Z,14.20
2022-11-15T18:03:09.463Z,14.65
2022-11-15T18:08:17.615Z,15.55
2022-11-15T18:13:21.271Z,14.90
2022-11-15T18:18:23.825Z,12.60
2022-11-15T18:23:27.839Z,12.10
2022-11-15T18:28:33.129Z,9.88
2022-11-15T18:33:36.192Z,11.50
2022-11-15T18:38:41.326Z,10.88
2022-11-15T18:43:45.381Z,10.00
2022-11-15T18:48:50.438Z,10.57
2022-11-15T18:53:55.598Z,14.45
2022-11-15T18:59:00.038Z,14.98
2022-11-15T19:04:06.573Z,12.73
2022-11-15T19:09:11.829Z,16.33
2022-11-15T19:14:16.233Z,16.63
2022-11-15T19:19:20.922Z,12.18
2022-11-15T19:24:25.029Z,15.40
2022-11-15T19:29:28.948Z,13.50
2022-11-15T19:34:31.690Z,15.95
2022-11-15T19:39:40.939Z,13.27
2022-11-15T19:44:43.877Z,11.10
2022-11-15T19:49:47.516Z,11.38
2022-11-15T19:54:51.482Z,8.10
2022-11-15T19:59:54.055Z,9.65
2022-11-15T20:04:56.641Z,9.52
2022-11-15T20:10:01.219Z,10.65
2022-11-15T20:20:07.431Z,9.63
2022-11-15T20:25:12.615Z,10.90
2022-11-15T20:30:15.511Z,10.75
2022-11-15T20:35:18.191Z,11.07
2022-11-15T20:40:22.251Z,10.75
2022-11-15T20:45:25.058Z,12.15
2022-11-15T20:50:42.211Z,11.63
2022-11-15T20:55:48.921Z,11.93
2022-11-15T21:00:51.662Z,12.23
2022-11-15T21:05:55.269Z,11.63
2022-11-15T21:11:16.992Z,11.63
2022-11-15T21:16:19.610Z,9.35
2022-11-15T21:21:22.434Z,9.05
2022-11-15T21:26:26.422Z,9.95
2022-11-15T21:31:29.225Z,8.80
2022-11-15T21:36:32.016Z,11.52
2022-11-15T21:41:36.384Z,10.00
2022-11-15T21:46:39.154Z,8.27
2022-11-15T21:51:42.224Z,9.05
2022-11-15T21:56:46.347Z,9.88
2022-11-15T22:02:06.767Z,9.25
2022-11-15T22:07:09.391Z,11.38
2022-11-15T22:12:13.831Z,11.57
2022-11-15T22:17:16.689Z,10.38
2022-11-15T22:22:19.362Z,8.77
2022-11-15T22:27:23.325Z,10.15
2022-11-15T22:32:25.963Z,9.48
2022-11-15T22:37:28.605Z,9.00
2022-11-15T22:42:34.473Z,8.70
2022-11-15T22:47:37.243Z,8.98
2022-11-15T22:52:39.972Z,8.77
2022-11-15T22:57:44.223Z,9.30
2022-11-15T23:02:49.581Z,6.90
2022-11-15T23:07:55.841Z,9.25
2022-11-15T23:13:17.509Z,9.07
2022-11-15T23:18:20.683Z,9.10
2022-11-15T23:23:23.422Z,8.68
2022-11-15T23:28:27.368Z,8.73
2022-11-15T23:33:47.457Z,10.00
2022-11-15T23:38:50.105Z,9.32
2022-11-15T23:43:54.300Z,9.10
2022-11-15T23:48:57.177Z,7.47
2022-11-15T23:53:59.998Z,8.68
2022-11-15T23:59:04.445Z,8.88
